createdAt,value
2023-04-04T00:01:30.076Z,9.48
2023-04-04T00:06:34.251Z,8.32
2023-04-04T00:11:37.101Z,4.43
2023-04-04T00:16:40.469Z,3.10
2023-04-04T00:21:44.790Z,3.80
2023-04-04T00:26:47.537Z,4.18
2023-04-04T00:31:50.366Z,3.65
2023-04-04T00:36:54.690Z,7.55
2023-04-04T00:41:58.361Z,8.60
2023-04-04T00:47:01.315Z,6.15
2023-04-04T00:52:07.758Z,4.60
2023-04-04T00:57:10.747Z,7.30
2023-04-04T01:02:13.719Z,7.35
2023-04-04T01:07:17.981Z,8.35
2023-04-04T01:12:21.008Z,5.35
2023-04-04T01:17:25.084Z,7.20
2023-04-04T01:22:31.313Z,4.10
2023-04-04T01:27:35.980Z,4.03
2023-04-04T01:32:51.622Z,6.10
2023-04-04T01:38:06.694Z,7.15
2023-04-04T01:43:11.060Z,7.18
2023-04-04T01:48:17.069Z,6.65
2023-04-04T01:53:24.153Z,8.10
2023-04-04T01:58:28.403Z,5.60
2023-04-04T02:03:31.578Z,7.10
2023-04-04T02:08:34.629Z,7.32
2023-04-04T02:13:41.403Z,6.75
2023-04-04T02:18:45.104Z,8.20
2023-04-04T02:23:47.955Z,5.95
2023-04-04T02:28:52.124Z,6.90
2023-04-04T02:33:54.947Z,7.93
2023-04-04T02:38:58.158Z,6.25
2023-04-04T02:44:04.046Z,5.53
2023-04-04T02:49:08.210Z,6.05
2023-04-04T02:54:12.753Z,5.03
2023-04-04T02:59:21.198Z,6.35
2023-04-04T03:04:24.034Z,11.20
2023-04-04T03:09:26.860Z,6.68
2023-04-04T03:14:31.078Z,5.65
2023-04-04T03:19:34.569Z,4.80
2023-04-04T03:31:27.425Z,6.63
2023-04-04T03:36:30.376Z,5.63
2023-04-04T03:41:33.093Z,5.93
2023-04-04T03:46:37.189Z,6.25
2023-04-04T03:51:40.176Z,7.05
2023-04-04T03:56:43.083Z,6.05
2023-04-04T04:01:47.216Z,5.18
2023-04-04T04:06:50.003Z,5.82
2023-04-04T04:11:52.871Z,6.03
2023-04-04T04:16:56.974Z,5.38
2023-04-04T04:21:59.871Z,4.55
2023-04-04T04:27:04.049Z,9.93
2023-04-04T04:32:08.781Z,7.53
2023-04-04T04:37:17.756Z,6.07
2023-04-04T04:42:24.551Z,8.20
2023-04-04T04:47:33.708Z,10.73
2023-04-04T04:52:40.740Z,8.05
2023-04-04T04:57:43.606Z,6.95
2023-04-04T05:02:56.027Z,6.57
2023-04-04T05:08:08.117Z,6.13
2023-04-04T05:13:15.060Z,7.03
2023-04-04T05:18:23.079Z,6.25
2023-04-04T05:23:26.375Z,7.65
2023-04-04T05:28:29.728Z,9.88
2023-04-04T05:33:37.814Z,6.80
2023-04-04T05:38:48.038Z,9.65
2023-04-04T05:43:54.537Z,7.05
2023-04-04T05:49:01.397Z,8.35
2023-04-04T05:54:07.413Z,8.70
2023-04-04T05:59:11.555Z,11.55
2023-04-04T06:04:27.852Z,9.50
2023-04-04T06:09:33.096Z,19.55
2023-04-04T06:14:36.408Z,24.58
2023-04-04T06:19:42.893Z,14.10
2023-04-04T06:24:45.691Z,15.07
2023-04-04T06:29:49.407Z,8.02
2023-04-04T06:34:57.029Z,12.02
2023-04-04T06:40:14.606Z,16.63
2023-04-04T06:45:19.154Z,12.55
2023-04-04T06:50:23.645Z,12.75
2023-04-04T06:55:28.422Z,10.38
2023-04-04T07:00:31.563Z,12.90
2023-04-04T07:05:39.375Z,12.10
2023-04-04T07:10:42.629Z,11.75
2023-04-04T07:15:48.817Z,8.27
2023-04-04T07:20:53.004Z,7.63
2023-04-04T07:25:55.934Z,7.65
2023-04-04T07:31:00.781Z,6.82
2023-04-04T07:36:05.746Z,6.68
2023-04-04T07:41:11.709Z,6.85
2023-04-04T07:46:14.537Z,7.38
2023-04-04T07:51:20.741Z,6.03
2023-04-04T07:56:23.561Z,8.93
2023-04-04T08:01:26.978Z,6.80
2023-04-04T08:06:31.102Z,6.20
2023-04-04T08:11:33.911Z,6.57
2023-04-04T08:16:36.708Z,5.15
2023-04-04T08:21:40.848Z,6.18
2023-04-04T08:26:47.009Z,6.78
2023-04-04T08:31:54.599Z,4.95
2023-04-04T08:36:59.955Z,4.10
2023-04-04T08:42:05.617Z,5.38
2023-04-04T08:47:10.690Z,5.90
2023-04-04T08:52:19.174Z,3.08
2023-04-04T08:57:22.244Z,2.67
2023-04-04T09:02:30.521Z,4.45
2023-04-04T09:07:37.172Z,3.70
2023-04-04T09:12:45.475Z,5.80
2023-04-04T09:17:49.028Z,3.13
2023-04-04T09:22:53.165Z,5.88
2023-04-04T09:27:57.974Z,5.28
2023-04-04T09:33:06.589Z,5.72
2023-04-04T09:38:11.002Z,4.63
2023-04-04T09:43:14.573Z,5.28
2023-04-04T09:48:27.239Z,6.40
2023-04-04T09:58:36.276Z,8.10
2023-04-04T10:03:39.984Z,8.25
2023-04-04T10:08:45.153Z,6.07
2023-04-04T10:13:47.938Z,3.15
2023-04-04T10:18:51.438Z,4.10
2023-04-04T10:23:57.391Z,4.05
2023-04-04T10:29:00.594Z,4.45
2023-04-04T10:34:12.668Z,2.70
2023-04-04T10:39:25.032Z,4.90
2023-04-04T10:44:31.795Z,4.90
2023-04-04T10:49:36.186Z,4.88
2023-04-04T10:54:41.195Z,2.97
2023-04-04T10:59:57.981Z,6.60
2023-04-04T11:05:11.687Z,4.82
2023-04-04T11:10:22.109Z,2.80
2023-04-04T11:15:26.471Z,5.25
2023-04-04T11:20:34.484Z,3.53
2023-04-04T11:25:41.129Z,2.72
2023-04-04T11:30:48.766Z,5.30
2023-04-04T11:35:51.903Z,2.35
2023-04-04T11:40:57.026Z,3.45
2023-04-04T11:46:08.838Z,4.22
2023-04-04T11:51:12.798Z,3.43
2023-04-04T11:56:18.007Z,5.05
2023-04-04T12:01:21.681Z,6.28
2023-04-04T12:06:25.441Z,3.15
2023-04-04T12:11:31.066Z,2.88
2023-04-04T12:16:33.857Z,3.53
2023-04-04T12:21:36.646Z,4.68
2023-04-04T12:26:43.074Z,2.83
2023-04-04T12:31:47.507Z,4.18
2023-04-04T12:36:54.085Z,5.25
2023-04-04T12:41:59.630Z,6.50
2023-04-04T12:47:04.900Z,4.53
2023-04-04T12:52:09.156Z,3.72
2023-04-04T12:57:18.385Z,5.57
2023-04-04T13:02:23.615Z,5.13
2023-04-04T13:07:28.453Z,5.40
2023-04-04T13:12:58.336Z,2.70
2023-04-04T13:18:15.384Z,4.13
2023-04-04T13:23:18.400Z,5.45
2023-04-04T13:28:22.507Z,6.00
2023-04-04T13:33:25.529Z,2.97
2023-04-04T13:38:28.894Z,3.40
2023-04-04T13:43:33.025Z,6.50
2023-04-04T13:48:35.766Z,7.57
2023-04-04T13:53:38.546Z,3.70
2023-04-04T13:58:43.099Z,4.53
2023-04-04T14:03:46.093Z,2.50
2023-04-04T14:08:48.877Z,3.40
2023-04-04T14:13:53.136Z,4.95
2023-04-04T14:18:56.149Z,5.57
2023-04-04T14:23:58.975Z,4.03
2023-04-04T14:29:03.395Z,4.63
2023-04-04T14:34:06.750Z,7.13
2023-04-04T14:39:09.567Z,4.63
2023-04-04T14:44:14.193Z,4.03
2023-04-04T14:49:16.926Z,5.45
2023-04-04T14:54:19.728Z,3.50
2023-04-04T14:59:23.986Z,2.95
2023-04-04T15:04:27.201Z,8.57
2023-04-04T15:09:30.776Z,3.38
2023-04-04T15:14:35.036Z,2.90
2023-04-04T15:19:37.839Z,5.00
2023-04-04T15:24:40.892Z,3.60
2023-04-04T15:29:45.034Z,3.60
2023-04-04T15:34:47.807Z,2.58
2023-04-04T15:39:53.410Z,2.60
2023-04-04T15:44:59.345Z,3.45
2023-04-04T15:50:02.097Z,4.22
2023-04-04T15:55:07.448Z,4.50
2023-04-04T16:00:13.211Z,4.22
2023-04-04T16:05:16.022Z,4.07
2023-04-04T16:10:18.786Z,3.38
2023-04-04T16:15:22.988Z,4.60
2023-04-04T16:20:26.544Z,6.40
2023-04-04T16:25:29.662Z,6.78
2023-04-04T16:30:33.946Z,3.05
2023-04-04T16:35:37.361Z,2.65
2023-04-04T16:40:40.386Z,4.35
2023-04-04T16:45:44.745Z,5.72
2023-04-04T16:50:47.484Z,6.28
2023-04-04T17:00:54.266Z,4.25
2023-04-04T17:05:59.828Z,4.07
2023-04-04T17:11:02.729Z,5.95
2023-04-04T17:16:07.373Z,4.20
2023-04-04T17:21:10.281Z,6.38
2023-04-04T17:26:13.306Z,4.90
2023-04-04T17:31:18.385Z,4.68
2023-04-04T17:36:21.306Z,3.97
2023-04-04T17:41:24.306Z,3.78
2023-04-04T17:46:28.592Z,5.60
2023-04-04T17:51:31.950Z,4.85
2023-04-04T17:56:34.678Z,4.97
2023-04-04T18:01:40.205Z,7.45
2023-04-04T18:06:43.398Z,5.60
2023-04-04T18:11:46.308Z,6.43
2023-04-04T18:16:50.402Z,7.50
2023-04-04T18:21:54.313Z,6.40
2023-04-04T18:26:57.858Z,3.05
2023-04-04T18:32:02.766Z,6.43
2023-04-04T18:37:06.266Z,5.50
2023-04-04T18:42:10.530Z,9.68
2023-04-04T18:47:14.698Z,7.25
2023-04-04T18:52:17.505Z,6.63
2023-04-04T18:57:20.603Z,9.88
2023-04-04T19:02:24.809Z,9.82
2023-04-04T19:07:29.050Z,12.13
2023-04-04T19:12:31.924Z,13.07
2023-04-04T19:17:36.147Z,12.00
2023-04-04T19:22:39.023Z,18.65
2023-04-04T19:27:41.822Z,12.15
2023-04-04T19:32:45.951Z,8.48
2023-04-04T19:37:48.827Z,17.20
2023-04-04T19:42:51.611Z,12.98
2023-04-04T19:47:56.040Z,12.93
2023-04-04T19:52:58.954Z,10.20
2023-04-04T19:58:02.544Z,8.23
2023-04-04T20:03:08.852Z,10.00
2023-04-04T20:08:11.652Z,8.13
2023-04-04T20:13:14.941Z,6.45
2023-04-04T20:18:24.057Z,7.75
2023-04-04T20:23:27.314Z,8.75
2023-04-04T20:28:30.291Z,10.02
2023-04-04T20:33:36.700Z,12.80
2023-04-04T20:38:41.660Z,8.95
2023-04-04T20:43:51.541Z,7.18
2023-04-04T20:48:56.839Z,5.10
2023-04-04T20:54:01.761Z,6.38
2023-04-04T20:59:07.357Z,7.88
2023-04-04T21:04:25.050Z,8.55
2023-04-04T21:09:28.840Z,6.30
2023-04-04T21:14:37.275Z,7.38
2023-04-04T21:19:41.410Z,5.13
2023-04-04T21:24:44.176Z,6.75
2023-04-04T21:29:47.019Z,8.25
2023-04-04T21:34:51.125Z,13.35
2023-04-04T21:39:59.862Z,7.75
2023-04-04T21:45:02.579Z,7.35
2023-04-04T21:50:08.253Z,8.35
2023-04-04T21:55:11.158Z,8.43
2023-04-04T22:00:15.258Z,8.80
2023-04-04T22:05:21.632Z,8.60
2023-04-04T22:10:27.495Z,7.55
2023-04-04T22:15:30.342Z,10.90
2023-04-04T22:20:34.570Z,6.43
2023-04-04T22:25:37.441Z,8.07
2023-04-04T22:30:42.209Z,8.68
2023-04-04T22:35:46.776Z,6.57
2023-04-04T22:40:49.602Z,10.93
2023-04-04T22:45:53.649Z,9.63
2023-04-04T22:50:58.671Z,8.85
2023-04-04T22:56:01.623Z,6.93
2023-04-04T23:01:04.638Z,8.25
2023-04-04T23:06:08.900Z,6.70
2023-04-04T23:11:11.678Z,8.63
2023-04-04T23:16:14.811Z,6.75
2023-04-04T23:21:18.998Z,11.32
2023-04-04T23:26:21.805Z,8.98
2023-04-04T23:31:25.686Z,11.85
2023-04-04T23:36:30.054Z,11.63
2023-04-04T23:41:33.251Z,13.40
2023-04-04T23:46:36.250Z,10.40
2023-04-04T23:51:40.410Z,8.30
2023-04-04T23:56:43.207Z,7.70
